createdAt,value
2022-10-05T00:00:06.679Z,20.60
2022-10-05T00:02:33.825Z,20.60
2022-10-05T00:05:00.629Z,20.70
2022-10-05T00:07:30.108Z,20.60
2022-10-05T00:09:58.865Z,20.60
2022-10-05T00:12:28.217Z,20.60
2022-10-05T00:15:01.774Z,20.60
2022-10-05T00:17:30.263Z,20.50
2022-10-05T00:19:57.560Z,20.60
2022-10-05T00:22:33.149Z,20.60
2022-10-05T00:25:02.355Z,20.50
2022-10-05T00:27:33.143Z,20.60
2022-10-05T00:30:03.711Z,20.60
2022-10-05T00:32:30.405Z,20.60
2022-10-05T00:34:57.738Z,20.60
2022-10-05T00:37:24.462Z,20.60
2022-10-05T00:39:51.247Z,20.60
2022-10-05T00:42:21.124Z,20.60
2022-10-05T00:45:00.404Z,20.60
2022-10-05T00:47:53.966Z,20.60
2022-10-05T00:50:46.909Z,20.50
2022-10-05T00:53:43.373Z,20.50
2022-10-05T00:56:55.572Z,20.60
2022-10-05T00:59:26.614Z,20.50
2022-10-05T01:02:21.521Z,20.50
2022-10-05T01:04:59.138Z,20.60
2022-10-05T01:07:42.109Z,20.60
2022-10-05T01:10:26.508Z,20.50
2022-10-05T01:12:59.008Z,20.50
2022-10-05T01:15:46.130Z,20.60
2022-10-05T01:18:17.158Z,20.60
2022-10-05T01:20:52.812Z,20.60
2022-10-05T01:23:50.421Z,20.50
2022-10-05T01:26:40.488Z,20.50
2022-10-05T01:29:43.860Z,20.50
2022-10-05T01:32:23.614Z,20.50
2022-10-05T01:35:02.415Z,20.50
2022-10-05T01:37:49.639Z,20.40
2022-10-05T01:40:24.446Z,20.40
2022-10-05T01:43:03.473Z,20.40
2022-10-05T01:46:04.947Z,20.40
2022-10-05T01:48:59.487Z,20.30
2022-10-05T01:51:41.343Z,20.30
2022-10-05T01:54:30.713Z,20.30
2022-10-05T01:57:30.055Z,20.30
2022-10-05T02:00:07.657Z,20.30
2022-10-05T02:03:07.567Z,20.30
2022-10-05T02:05:51.654Z,20.20
2022-10-05T02:08:31.163Z,20.30
2022-10-05T02:11:14.705Z,20.20
2022-10-05T02:13:53.011Z,20.30
2022-10-05T02:16:30.083Z,20.30
2022-10-05T02:19:04.947Z,20.30
2022-10-05T02:21:34.579Z,20.20
2022-10-05T02:24:08.647Z,20.20
2022-10-05T02:26:37.427Z,20.20
2022-10-05T02:29:09.775Z,20.20
2022-10-05T02:31:51.934Z,20.20
2022-10-05T02:34:23.069Z,20.10
2022-10-05T02:37:03.357Z,20.10
2022-10-05T02:39:51.012Z,20.00
2022-10-05T02:42:56.200Z,20.00
2022-10-05T02:45:43.998Z,20.00
2022-10-05T02:48:29.648Z,20.00
2022-10-05T02:51:22.775Z,20.00
2022-10-05T02:54:27.007Z,20.00
2022-10-05T02:56:57.079Z,20.00
2022-10-05T02:59:35.864Z,20.00
2022-10-05T03:02:10.582Z,20.00
2022-10-05T03:04:43.188Z,20.00
2022-10-05T03:07:21.841Z,20.00
2022-10-05T03:10:12.245Z,19.90
2022-10-05T03:12:41.886Z,20.00
2022-10-05T03:15:40.736Z,20.00
2022-10-05T03:18:30.723Z,20.00
2022-10-05T03:21:36.536Z,20.00
2022-10-05T03:24:40.872Z,20.00
2022-10-05T03:27:37.551Z,20.00
2022-10-05T03:30:16.626Z,20.00
2022-10-05T03:33:05.503Z,20.00
2022-10-05T03:35:40.657Z,20.00
2022-10-05T03:38:21.462Z,20.00
2022-10-05T03:41:03.967Z,20.00
2022-10-05T03:43:40.100Z,20.00
2022-10-05T03:46:19.247Z,20.00
2022-10-05T03:49:26.818Z,20.00
2022-10-05T03:52:02.696Z,20.00
2022-10-05T03:54:36.065Z,20.00
2022-10-05T03:57:23.240Z,20.00
2022-10-05T04:00:17.393Z,20.00
2022-10-05T04:03:00.636Z,20.00
2022-10-05T04:05:33.356Z,20.00
2022-10-05T04:08:11.238Z,20.00
2022-10-05T04:10:47.698Z,19.90
2022-10-05T04:13:26.262Z,19.90
2022-10-05T04:16:06.531Z,19.90
2022-10-05T04:18:43.733Z,19.90
2022-10-05T04:21:24.177Z,19.90
2022-10-05T04:24:14.612Z,19.90
2022-10-05T04:27:00.853Z,19.90
2022-10-05T04:29:44.726Z,20.00
2022-10-05T04:32:23.761Z,19.80
2022-10-05T04:35:24.371Z,19.80
2022-10-05T04:38:10.741Z,19.90
2022-10-05T04:40:58.553Z,19.90
2022-10-05T04:43:34.271Z,19.90
2022-10-05T04:46:32.925Z,19.90
2022-10-05T04:49:14.557Z,19.90
2022-10-05T04:51:51.124Z,19.80
2022-10-05T04:54:37.988Z,19.90
2022-10-05T04:57:17.749Z,19.80
2022-10-05T05:00:22.841Z,19.90
2022-10-05T05:03:13.686Z,19.80
2022-10-05T05:06:18.315Z,19.80
2022-10-05T05:09:19.127Z,19.80
2022-10-05T05:12:16.336Z,19.90
2022-10-05T05:14:53.523Z,19.80
2022-10-05T05:17:59.872Z,19.80
2022-10-05T05:20:32.706Z,19.80
2022-10-05T05:23:20.110Z,19.80
2022-10-05T05:26:26.602Z,19.80
2022-10-05T05:29:16.434Z,19.80
2022-10-05T05:31:59.308Z,19.80
2022-10-05T05:34:28.903Z,19.80
2022-10-05T05:37:19.860Z,19.80
2022-10-05T05:39:52.875Z,19.90
2022-10-05T05:42:40.608Z,19.80
2022-10-05T05:45:34.953Z,19.80
2022-10-05T05:48:13.820Z,19.80
2022-10-05T05:50:59.912Z,19.80
2022-10-05T05:53:36.964Z,19.80
2022-10-05T05:56:10.521Z,19.80
2022-10-05T05:58:41.655Z,19.80
2022-10-05T06:01:33.753Z,19.80
2022-10-05T06:04:22.649Z,19.80
2022-10-05T06:06:52.544Z,19.80
2022-10-05T06:09:38.357Z,19.80
2022-10-05T06:12:28.072Z,19.80
2022-10-05T06:15:03.874Z,19.80
2022-10-05T06:17:37.816Z,19.80
2022-10-05T06:20:16.771Z,19.80
2022-10-05T06:22:46.071Z,19.80
2022-10-05T06:25:40.224Z,19.80
2022-10-05T06:28:16.313Z,19.90
2022-10-05T06:31:12.349Z,19.90
2022-10-05T06:33:53.351Z,19.80
2022-10-05T06:36:54.482Z,19.90
2022-10-05T06:39:51.155Z,19.80
2022-10-05T06:42:19.506Z,19.90
2022-10-05T06:45:26.884Z,19.90
2022-10-05T06:48:47.160Z,19.80
2022-10-05T06:51:41.111Z,19.80
2022-10-05T06:54:50.222Z,19.80
2022-10-05T06:57:37.860Z,19.80
2022-10-05T07:00:17.157Z,19.90
2022-10-05T07:03:15.392Z,19.90
2022-10-05T07:06:02.604Z,19.90
2022-10-05T07:09:01.964Z,19.80
2022-10-05T07:12:13.655Z,19.90
2022-10-05T07:14:56.267Z,19.90
2022-10-05T07:17:38.433Z,19.90
2022-10-05T07:20:35.612Z,20.00
2022-10-05T07:23:24.686Z,20.00
2022-10-05T07:26:05.128Z,20.00
2022-10-05T07:28:37.751Z,20.00
2022-10-05T07:31:09.536Z,20.10
2022-10-05T07:33:52.583Z,20.00
2022-10-05T07:36:55.058Z,20.00
2022-10-05T07:40:00.528Z,20.00
2022-10-05T07:42:52.300Z,20.00
2022-10-05T07:45:31.955Z,20.00
2022-10-05T07:48:18.980Z,20.10
2022-10-05T07:51:11.282Z,20.00
2022-10-05T07:53:50.311Z,20.00
2022-10-05T07:56:43.418Z,20.00
2022-10-05T07:59:38.935Z,20.00
2022-10-05T08:02:44.539Z,20.00
2022-10-05T08:05:30.095Z,20.00
2022-10-05T08:08:14.334Z,20.10
2022-10-05T08:10:58.092Z,20.00
2022-10-05T08:13:39.658Z,20.00
2022-10-05T08:16:14.420Z,20.00
2022-10-05T08:18:54.672Z,20.00
2022-10-05T08:21:30.040Z,20.10
2022-10-05T08:24:05.190Z,20.10
2022-10-05T08:26:34.663Z,20.10
2022-10-05T08:29:16.377Z,20.10
2022-10-05T08:31:50.042Z,20.00
2022-10-05T08:34:43.056Z,20.10
2022-10-05T08:37:20.681Z,20.10
2022-10-05T08:39:56.430Z,20.20
2022-10-05T08:42:55.349Z,20.20
2022-10-05T08:45:44.231Z,20.20
2022-10-05T08:48:38.507Z,20.20
2022-10-05T08:51:11.506Z,20.30
2022-10-05T08:54:04.760Z,20.30
2022-10-05T08:57:13.979Z,20.30
2022-10-05T08:59:46.495Z,20.30
2022-10-05T09:02:20.967Z,20.30
2022-10-05T09:05:10.520Z,20.30
2022-10-05T09:08:04.309Z,20.30
2022-10-05T09:10:36.815Z,20.40
2022-10-05T09:13:09.254Z,20.40
2022-10-05T09:16:16.903Z,20.40
2022-10-05T09:18:52.572Z,20.40
2022-10-05T09:21:53.465Z,20.40
2022-10-05T09:24:48.250Z,20.40
2022-10-05T09:27:17.824Z,20.40
2022-10-05T09:29:53.078Z,20.50
2022-10-05T09:32:29.583Z,20.60
2022-10-05T09:35:17.840Z,20.60
2022-10-05T09:38:03.240Z,20.70
2022-10-05T09:40:51.307Z,20.70
2022-10-05T09:43:54.620Z,20.80
2022-10-05T09:46:46.824Z,21.00
2022-10-05T09:49:24.209Z,21.10
2022-10-05T09:52:16.435Z,21.30
2022-10-05T09:55:05.480Z,21.30
2022-10-05T09:58:17.017Z,21.40
2022-10-05T10:01:03.816Z,21.50
2022-10-05T10:04:24.681Z,21.60
2022-10-05T10:07:23.535Z,21.70
2022-10-05T10:10:16.246Z,21.80
2022-10-05T10:13:12.746Z,21.80
2022-10-05T10:15:54.649Z,21.90
2022-10-05T10:18:58.679Z,21.80
2022-10-05T10:22:02.972Z,21.90
2022-10-05T10:24:51.011Z,21.90
2022-10-05T10:27:30.038Z,21.90
2022-10-05T10:30:36.421Z,21.90
2022-10-05T10:33:21.985Z,22.00
2022-10-05T10:36:18.491Z,22.00
2022-10-05T10:39:00.031Z,22.00
2022-10-05T10:41:38.832Z,22.00
2022-10-05T10:44:14.327Z,21.90
2022-10-05T10:47:18.638Z,21.90
2022-10-05T10:50:24.198Z,21.80
2022-10-05T10:53:33.133Z,21.80
2022-10-05T10:56:17.995Z,21.80
2022-10-05T10:59:04.707Z,21.80
2022-10-05T11:01:59.611Z,21.70
2022-10-05T11:04:29.134Z,21.70
2022-10-05T11:06:58.621Z,21.70
2022-10-05T11:09:39.876Z,21.70
2022-10-05T11:12:37.923Z,21.60
2022-10-05T11:15:23.104Z,21.70
2022-10-05T11:18:16.242Z,21.70
2022-10-05T11:21:00.097Z,21.70
2022-10-05T11:24:04.396Z,21.80
2022-10-05T11:26:50.177Z,21.80
2022-10-05T11:29:54.389Z,21.90
2022-10-05T11:33:06.247Z,21.90
2022-10-05T11:35:58.809Z,22.00
2022-10-05T11:38:37.624Z,22.00
2022-10-05T11:41:31.652Z,22.10
2022-10-05T11:44:21.210Z,22.10
2022-10-05T11:47:08.966Z,22.30
2022-10-05T11:49:54.099Z,22.40
2022-10-05T11:52:44.915Z,22.30
2022-10-05T11:55:24.172Z,22.30
2022-10-05T11:58:07.499Z,22.40
2022-10-05T12:00:42.742Z,22.50
2022-10-05T12:03:31.574Z,22.80
2022-10-05T12:06:34.342Z,22.90
2022-10-05T12:09:23.076Z,22.90
2022-10-05T12:12:01.990Z,22.90
2022-10-05T12:14:59.127Z,22.80
2022-10-05T12:17:54.853Z,22.80
2022-10-05T12:20:48.942Z,22.80
2022-10-05T12:23:30.847Z,22.80
2022-10-05T12:26:04.484Z,22.80
2022-10-05T12:28:53.700Z,22.80
2022-10-05T12:31:54.498Z,22.90
2022-10-05T12:34:26.572Z,22.90
2022-10-05T12:37:04.127Z,22.90
2022-10-05T12:39:59.665Z,23.00
2022-10-05T12:42:30.378Z,23.20
2022-10-05T12:45:43.520Z,23.40
2022-10-05T12:48:39.320Z,23.50
2022-10-05T12:51:16.900Z,23.80
2022-10-05T12:54:08.348Z,23.90
2022-10-05T12:56:50.755Z,23.80
2022-10-05T12:59:45.055Z,23.70
2022-10-05T13:02:46.516Z,23.70
2022-10-05T13:05:40.724Z,23.70
2022-10-05T13:08:45.233Z,23.50
2022-10-05T13:11:20.803Z,23.20
2022-10-05T13:14:19.483Z,23.20
2022-10-05T13:17:08.585Z,23.10
2022-10-05T13:19:52.568Z,23.10
2022-10-05T13:22:28.093Z,23.00
2022-10-05T13:25:07.795Z,23.00
2022-10-05T13:27:40.159Z,23.00
2022-10-05T13:30:14.363Z,23.00
2022-10-05T13:32:47.873Z,23.10
2022-10-05T13:35:35.235Z,23.20
2022-10-05T13:38:34.093Z,23.30
2022-10-05T13:41:25.951Z,23.30
2022-10-05T13:44:11.033Z,23.40
2022-10-05T13:46:49.369Z,23.50
2022-10-05T13:49:59.480Z,23.50
2022-10-05T13:52:50.431Z,23.50
2022-10-05T13:55:22.811Z,23.60
2022-10-05T13:58:16.680Z,23.60
2022-10-05T14:00:51.904Z,23.50
2022-10-05T14:03:27.472Z,23.40
2022-10-05T14:05:57.622Z,23.40
2022-10-05T14:08:31.958Z,23.30
2022-10-05T14:10:58.947Z,23.30
2022-10-05T14:13:32.363Z,23.30
2022-10-05T14:16:13.445Z,23.30
2022-10-05T14:19:16.237Z,23.40
2022-10-05T14:21:49.804Z,23.20
2022-10-05T14:24:43.182Z,23.20
2022-10-05T14:27:21.694Z,23.10
2022-10-05T14:30:13.896Z,23.00
2022-10-05T14:33:06.954Z,22.90
2022-10-05T14:35:45.788Z,22.80
2022-10-05T14:38:26.588Z,22.70
2022-10-05T14:41:19.083Z,22.70
2022-10-05T14:43:56.821Z,22.70
2022-10-05T14:46:29.127Z,22.60
2022-10-05T14:49:10.872Z,22.60
2022-10-05T14:51:38.222Z,22.60
2022-10-05T14:54:46.587Z,22.60
2022-10-05T14:57:19.995Z,22.50
2022-10-05T15:00:11.093Z,22.40
2022-10-05T15:02:54.393Z,22.30
2022-10-05T15:05:45.985Z,22.30
2022-10-05T15:08:26.290Z,22.30
2022-10-05T15:11:00.680Z,22.30
2022-10-05T15:13:38.977Z,22.20
2022-10-05T15:16:20.231Z,22.30
2022-10-05T15:19:12.223Z,22.20
2022-10-05T15:21:42.350Z,22.30
2022-10-05T15:24:20.137Z,22.30
2022-10-05T15:26:53.682Z,22.30
2022-10-05T15:29:47.322Z,22.20
2022-10-05T15:32:19.575Z,22.20
2022-10-05T15:34:56.518Z,22.20
2022-10-05T15:37:32.994Z,22.20
2022-10-05T15:40:15.384Z,22.20
2022-10-05T15:42:43.075Z,22.10
2022-10-05T15:45:34.167Z,22.10
2022-10-05T15:48:06.771Z,22.00
2022-10-05T15:50:47.550Z,22.10
2022-10-05T15:53:27.216Z,22.20
2022-10-05T15:56:15.761Z,22.10
2022-10-05T15:58:51.703Z,22.10
2022-10-05T16:01:33.839Z,22.00
2022-10-05T16:04:20.398Z,22.00
2022-10-05T16:07:18.472Z,22.00
2022-10-05T16:10:19.759Z,22.00
2022-10-05T16:13:25.770Z,21.90
2022-10-05T16:16:21.011Z,21.90
2022-10-05T16:19:04.830Z,21.90
2022-10-05T16:21:52.879Z,21.80
2022-10-05T16:24:24.852Z,21.80
2022-10-05T16:27:07.054Z,21.80
2022-10-05T16:30:03.099Z,21.80
2022-10-05T16:32:46.695Z,21.80
2022-10-05T16:35:25.541Z,21.70
2022-10-05T16:38:10.277Z,21.70
2022-10-05T16:40:58.459Z,21.70
2022-10-05T16:43:37.319Z,21.70
2022-10-05T16:46:12.345Z,21.60
2022-10-05T16:49:14.247Z,21.60
2022-10-05T16:52:02.843Z,21.60
2022-10-05T16:54:48.366Z,21.60
2022-10-05T16:57:24.168Z,21.60
2022-10-05T17:00:15.668Z,21.50
2022-10-05T17:03:01.794Z,21.50
2022-10-05T17:06:04.552Z,21.50
2022-10-05T17:09:19.042Z,21.50
2022-10-05T17:11:58.069Z,21.50
2022-10-05T17:14:49.160Z,21.40
2022-10-05T17:17:30.894Z,21.40
2022-10-05T17:20:23.576Z,21.50
2022-10-05T17:23:20.376Z,21.50
2022-10-05T17:25:56.099Z,21.40
2022-10-05T17:28:24.720Z,21.50
2022-10-05T17:31:22.419Z,21.50
2022-10-05T17:34:17.790Z,21.50
2022-10-05T17:36:54.122Z,21.40
2022-10-05T17:39:23.662Z,21.40
2022-10-05T17:41:50.501Z,21.40
2022-10-05T17:44:20.566Z,21.40
2022-10-05T17:46:53.976Z,21.40
2022-10-05T17:49:26.696Z,21.40
2022-10-05T17:52:12.140Z,21.40
2022-10-05T17:55:20.192Z,21.50
2022-10-05T17:57:46.998Z,21.40
2022-10-05T18:00:25.767Z,21.50
2022-10-05T18:02:55.756Z,21.50
2022-10-05T18:05:28.114Z,21.50
2022-10-05T18:08:13.123Z,21.50
2022-10-05T18:11:10.999Z,21.50
2022-10-05T18:13:45.402Z,21.50
2022-10-05T18:16:13.448Z,21.60
2022-10-05T18:18:43.213Z,21.60
2022-10-05T18:21:18.343Z,21.60
2022-10-05T18:24:01.593Z,21.60
2022-10-05T18:26:34.200Z,21.60
2022-10-05T18:29:13.948Z,21.50
2022-10-05T18:32:06.720Z,21.50
2022-10-05T18:34:54.467Z,21.50
2022-10-05T18:37:21.493Z,21.50
2022-10-05T18:39:51.055Z,21.50
2022-10-05T18:42:27.065Z,21.50
2022-10-05T18:45:06.381Z,21.50
2022-10-05T18:48:07.952Z,21.60
2022-10-05T18:50:50.720Z,21.50
2022-10-05T18:53:42.580Z,21.20
2022-10-05T18:56:38.314Z,21.30
2022-10-05T18:59:37.244Z,21.50
2022-10-05T19:02:40.270Z,21.70
2022-10-05T19:05:46.228Z,21.70
2022-10-05T19:08:49.594Z,21.80
2022-10-05T19:11:57.755Z,21.80
2022-10-05T19:14:46.180Z,21.80
2022-10-05T19:17:41.918Z,21.70
2022-10-05T19:20:25.154Z,21.70
2022-10-05T19:23:09.404Z,21.70
2022-10-05T19:25:43.236Z,21.70
2022-10-05T19:28:37.305Z,21.70
2022-10-05T19:31:37.623Z,21.70
2022-10-05T19:34:16.588Z,21.70
2022-10-05T19:37:34.564Z,21.70
2022-10-05T19:40:09.688Z,21.60
2022-10-05T19:43:02.454Z,21.60
2022-10-05T19:45:33.316Z,21.60
2022-10-05T19:48:27.866Z,21.50
2022-10-05T19:50:59.329Z,21.50
2022-10-05T19:53:45.884Z,21.60
2022-10-05T19:56:25.305Z,21.60
2022-10-05T19:58:56.387Z,21.60
2022-10-05T20:01:33.494Z,21.30
2022-10-05T20:04:00.322Z,20.80
2022-10-05T20:06:29.411Z,20.50
2022-10-05T20:09:00.262Z,20.30
2022-10-05T20:11:28.254Z,20.00
2022-10-05T20:13:55.057Z,19.90
2022-10-05T20:16:50.979Z,19.80
2022-10-05T20:19:55.189Z,19.70
2022-10-05T20:22:35.297Z,19.70
2022-10-05T20:25:03.985Z,19.60
2022-10-05T20:27:39.738Z,19.60
2022-10-05T20:30:07.541Z,19.50
2022-10-05T20:32:34.356Z,19.50
2022-10-05T20:35:01.221Z,19.50
2022-10-05T20:37:28.155Z,19.50
2022-10-05T20:39:54.894Z,19.50
2022-10-05T20:42:23.778Z,19.40
2022-10-05T20:44:55.783Z,19.30
2022-10-05T20:47:23.921Z,19.40
2022-10-05T20:49:50.649Z,19.40
2022-10-05T20:52:17.400Z,19.40
2022-10-05T20:57:15.795Z,19.50
2022-10-05T20:59:42.565Z,19.50
2022-10-05T21:02:09.823Z,19.50
2022-10-05T21:04:40.987Z,19.50
2022-10-05T21:07:08.980Z,19.50
2022-10-05T21:09:38.242Z,19.50
2022-10-05T21:12:05.246Z,19.40
2022-10-05T21:14:34.294Z,19.50
2022-10-05T21:17:01.859Z,19.50
2022-10-05T21:19:29.436Z,19.50
2022-10-05T21:21:59.588Z,19.50
2022-10-05T21:24:29.140Z,19.40
2022-10-05T21:26:57.428Z,19.40
2022-10-05T21:29:24.185Z,19.40
2022-10-05T21:31:51.143Z,19.40
2022-10-05T21:34:18.022Z,19.30
2022-10-05T21:36:44.750Z,19.20
2022-10-05T21:39:11.675Z,19.20
2022-10-05T21:41:38.476Z,19.10
2022-10-05T21:44:06.710Z,19.10
2022-10-05T21:46:36.129Z,19.10
2022-10-05T21:49:03.013Z,19.10
2022-10-05T21:51:29.860Z,19.00
2022-10-05T21:54:15.522Z,19.00
2022-10-05T21:56:46.475Z,19.10
2022-10-05T21:59:16.730Z,19.10
2022-10-05T22:01:43.416Z,19.10
2022-10-05T22:04:10.252Z,19.10
2022-10-05T22:06:37.099Z,19.00
2022-10-05T22:09:05.120Z,19.00
2022-10-05T22:11:32.570Z,19.00
2022-10-05T22:14:02.628Z,18.90
2022-10-05T22:16:38.053Z,18.90
2022-10-05T22:19:10.582Z,18.90
2022-10-05T22:21:41.390Z,19.00
2022-10-05T22:24:09.233Z,18.80
2022-10-05T22:26:36.161Z,18.80
2022-10-05T22:29:03.676Z,18.80
2022-10-05T22:31:30.552Z,18.80
2022-10-05T22:33:57.348Z,18.70
2022-10-05T22:36:24.168Z,18.70
2022-10-05T22:38:50.880Z,18.70
2022-10-05T22:41:20.554Z,18.60
2022-10-05T22:43:50.056Z,18.60
2022-10-05T22:46:17.560Z,18.60
2022-10-05T22:48:44.331Z,18.50
2022-10-05T22:51:11.164Z,18.50
2022-10-05T22:53:38.293Z,18.40
2022-10-05T22:56:10.725Z,18.40
2022-10-05T22:58:38.239Z,18.40
2022-10-05T23:01:07.494Z,18.40
2022-10-05T23:03:34.495Z,18.40
2022-10-05T23:06:07.108Z,18.40
2022-10-05T23:08:35.644Z,18.40
2022-10-05T23:11:07.535Z,18.40
2022-10-05T23:13:34.375Z,18.40
2022-10-05T23:16:13.423Z,18.40
2022-10-05T23:18:40.369Z,18.30
2022-10-05T23:21:08.645Z,18.40
2022-10-05T23:23:37.363Z,18.40
2022-10-05T23:26:06.011Z,18.40
2022-10-05T23:28:33.849Z,18.40
2022-10-05T23:31:02.816Z,18.30
2022-10-05T23:33:30.116Z,18.30
2022-10-05T23:35:58.518Z,18.40
2022-10-05T23:38:26.173Z,18.40
2022-10-05T23:40:53.244Z,18.50
2022-10-05T23:43:20.204Z,18.50
2022-10-05T23:45:47.635Z,18.50
2022-10-05T23:48:14.552Z,18.50
2022-10-05T23:50:43.502Z,18.60
2022-10-05T23:53:10.231Z,18.60
2022-10-05T23:55:37.389Z,18.60
2022-10-05T23:58:04.757Z,18.60
